Time;durP1;ratioP1;P1;durP2;ratioP2;P2;SDS_P1;SDS_P2;PMS_P1;PMS_P2;Temp;Humidity;BMP_temperature;BMP_pressure;BME280_temperature;BME280_humidity;BME280_pressure;Samples;Min_cycle;Max_cycle;Signal;HPM_P1;HPM_P2
2023/09/05 00:03:53;;;;;;;4.75;3.85;;;27.00;73.60;;;;;;7381554;19;20011;-81
2023/09/05 00:06:26;;;;;;;7.97;3.38;;;27.00;73.60;;;;;;7383046;19;20016;-80
2023/09/05 00:08:57;;;;;;;6.70;3.78;;;27.00;73.70;;;;;;7381966;19;20320;-81
2023/09/05 00:11:34;;;;;;;7.03;3.42;;;26.90;73.80;;;;;;7382237;19;20011;-80
2023/09/05 00:14:12;;;;;;;7.85;3.47;;;26.90;73.80;;;;;;7401506;19;20011;-80
2023/09/05 00:16:46;;;;;;;7.60;3.53;;;26.90;73.90;;;;;;7383420;19;19999;-80
2023/09/05 00:19:19;;;;;;;12.05;3.67;;;26.80;74.10;;;;;;7382701;19;20488;-80
2023/09/05 00:21:59;;;;;;;7.63;3.22;;;26.80;74.50;;;;;;7382556;19;20025;-80
2023/09/05 00:24:42;;;;;;;4.82;3.35;;;26.80;74.60;;;;;;7381252;19;20013;-80
2023/09/05 00:27:22;;;;;;;7.85;3.67;;;26.70;74.70;;;;;;7382273;19;20086;-80
2023/09/05 00:29:53;;;;;;;3.70;3.22;;;26.70;74.70;;;;;;7382039;19;20113;-80
2023/09/05 00:32:40;;;;;;;13.93;3.97;;;26.70;74.80;;;;;;7382083;19;20016;-80
2023/09/05 00:35:14;;;;;;;7.30;3.78;;;26.70;74.70;;;;;;7403517;19;20014;-80
2023/09/05 00:37:45;;;;;;;6.85;3.38;;;26.70;74.80;;;;;;7382764;19;20006;-79
2023/09/05 00:40:26;;;;;;;5.43;3.50;;;26.60;74.90;;;;;;7383002;19;20007;-80
2023/09/05 00:43:02;;;;;;;10.40;3.83;;;26.60;74.80;;;;;;7383578;19;20007;-81
2023/09/05 00:45:37;;;;;;;7.05;3.67;;;26.60;74.80;;;;;;7382750;19;20031;-81
2023/09/05 00:48:13;;;;;;;6.95;3.40;;;26.60;74.80;;;;;;7383389;19;20354;-81
2023/09/05 00:50:48;;;;;;;9.10;3.90;;;26.60;74.80;;;;;;7385272;19;20015;-81
2023/09/05 00:53:17;;;;;;;7.10;3.30;;;26.60;75.00;;;;;;7383211;19;20011;-81
2023/09/05 00:55:49;;;;;;;13.05;3.58;;;26.60;75.00;;;;;;7417608;19;20014;-81
2023/09/05 00:58:25;;;;;;;5.45;3.22;;;26.60;75.20;;;;;;7404778;19;20391;-80
2023/09/05 01:01:09;;;;;;;5.10;3.65;;;26.50;74.90;;;;;;7405940;19;20006;-80
2023/09/05 01:03:41;;;;;;;5.93;3.80;;;26.50;75.00;;;;;;7403984;19;20055;-80
2023/09/05 01:06:27;;;;;;;4.55;3.33;;;26.50;75.00;;;;;;7381500;19;20009;-81
2023/09/05 01:09:31;;;;;;;5.68;3.58;;;26.50;75.00;;;;;;7380593;19;20006;-81
2023/09/05 01:12:08;;;;;;;14.73;4.40;;;26.50;75.20;;;;;;7379315;19;20006;-81
2023/09/05 01:14:52;;;;;;;7.40;3.80;;;26.50;75.20;;;;;;7380958;19;20034;-80
2023/09/05 01:17:28;;;;;;;6.40;3.60;;;26.50;75.20;;;;;;7378704;19;20006;-81
2023/09/05 01:20:10;;;;;;;9.10;3.88;;;26.40;75.20;;;;;;7399992;19;20031;-82
2023/09/05 01:22:54;;;;;;;7.05;3.70;;;26.40;75.40;;;;;;7380215;19;20127;-81
2023/09/05 01:25:35;;;;;;;8.65;3.60;;;26.40;75.40;;;;;;7382795;19;20011;-81
2023/09/05 01:28:11;;;;;;;;;;;26.40;75.50;;;;;;7387634;19;20011;-80
2023/09/05 01:30:55;;;;;;;6.38;3.38;;;26.40;75.40;;;;;;7386979;19;19927;-80
2023/09/05 01:33:28;;;;;;;4.60;3.47;;;26.30;75.20;;;;;;7386564;19;20006;-81
2023/09/05 01:36:15;;;;;;;9.35;3.58;;;26.30;75.40;;;;;;7387953;19;20010;-80
2023/09/05 01:39:06;;;;;;;9.30;3.75;;;26.30;75.50;;;;;;7387519;19;20027;-80
2023/09/05 01:41:53;;;;;;;7.15;3.50;;;26.30;75.60;;;;;;7387856;19;20398;-80
2023/09/05 01:44:38;;;;;;;8.65;4.03;;;26.30;75.80;;;;;;7388475;19;20026;-80
2023/09/05 01:47:14;;;;;;;9.65;4.25;;;26.20;75.80;;;;;;7411646;19;20002;-81
2023/09/05 01:49:48;;;;;;;4.95;3.60;;;26.20;75.90;;;;;;7387070;19;20264;-80
2023/09/05 01:55:30;;;;;;;8.05;3.92;;;26.20;76.10;;;;;;7385988;19;20063;-81
2023/09/05 02:01:29;;;;;;;5.60;3.80;;;26.10;76.10;;;;;;7388768;19;20003;-80
2023/09/05 02:04:22;;;;;;;7.13;4.13;;;26.10;76.20;;;;;;7386124;19;20002;-81
2023/09/05 02:07:09;;;;;;;7.20;3.65;;;26.10;76.10;;;;;;7386157;19;20007;-81
2023/09/05 02:09:46;;;;;;;9.65;4.00;;;26.00;76.20;;;;;;7385697;19;20426;-81
2023/09/05 02:12:29;;;;;;;7.50;3.67;;;26.00;76.10;;;;;;7385787;19;20007;-80
2023/09/05 02:15:13;;;;;;;11.57;3.70;;;26.00;75.90;;;;;;7385246;19;20021;-81
2023/09/05 02:17:50;;;;;;;7.57;3.80;;;26.00;75.60;;;;;;7385526;19;20010;-80
2023/09/05 02:20:31;;;;;;;8.68;4.05;;;25.90;75.40;;;;;;7385996;19;20025;-81
2023/09/05 02:23:49;;;;;;;;;;;;;;;;;;;;;
2023/09/05 02:26:29;;;;;;;5.88;3.55;;;25.90;75.80;;;;;;7282253;19;2020652;-81
2023/09/05 02:29:03;;;;;;;10.25;4.22;;;25.90;76.10;;;;;;7406559;19;20031;-81
2023/09/05 02:31:45;;;;;;;7.63;3.83;;;25.90;76.20;;;;;;7385515;19;20003;-81
2023/09/05 02:34:20;;;;;;;7.88;4.03;;;25.90;76.40;;;;;;7386022;19;20030;-81
2023/09/05 02:39:50;;;;;;;7.53;4.10;;;25.80;76.50;;;;;;7386752;19;20010;-82
2023/09/05 02:42:21;;;;;;;7.47;4.28;;;25.80;76.50;;;;;;7394591;19;20011;-82
2023/09/05 02:45:02;;;;;;;7.90;4.00;;;25.70;76.60;;;;;;7410696;19;20062;-83
2023/09/05 02:47:35;;;;;;;6.72;4.03;;;25.70;76.60;;;;;;7408144;19;20022;-82
2023/09/05 02:50:05;;;;;;;6.93;4.18;;;25.70;76.80;;;;;;7429073;19;20031;-82
2023/09/05 02:52:36;;;;;;;9.17;4.50;;;25.70;76.90;;;;;;7395438;19;20232;-82
2023/09/05 02:55:19;;;;;;;6.32;4.13;;;25.70;76.90;;;;;;7384558;19;20007;-82
2023/09/05 02:57:55;;;;;;;6.07;4.13;;;25.60;77.20;;;;;;7385542;19;20010;-82
2023/09/05 03:00:49;;;;;;;7.75;4.07;;;25.60;77.30;;;;;;7388121;19;20286;-82
2023/09/05 03:03:30;;;;;;;7.38;4.00;;;25.60;77.40;;;;;;7387381;19;20021;-82
2023/09/05 03:06:10;;;;;;;9.48;4.55;;;25.60;77.40;;;;;;7384994;19;20015;-82
2023/09/05 03:08:46;;;;;;;7.60;4.28;;;25.50;77.40;;;;;;7383662;19;20021;-82
2023/09/05 03:11:30;;;;;;;8.38;4.07;;;25.50;77.40;;;;;;7395153;19;20006;-82
2023/09/05 03:14:06;;;;;;;9.27;4.18;;;25.50;77.40;;;;;;7403866;19;20011;-82
2023/09/05 03:16:39;;;;;;;6.80;4.10;;;25.50;77.40;;;;;;7385643;19;20007;-82
2023/09/05 03:19:19;;;;;;;7.38;3.95;;;25.50;77.40;;;;;;7385654;19;20020;-81
2023/09/05 03:21:51;;;;;;;8.15;4.03;;;25.50;77.50;;;;;;7385961;19;20023;-81
2023/09/05 03:24:26;;;;;;;7.82;4.43;;;25.50;77.40;;;;;;7383891;19;20007;-82
2023/09/05 03:26:58;;;;;;;9.50;4.68;;;25.40;77.30;;;;;;7383987;19;20003;-82
2023/09/05 03:29:43;;;;;;;9.60;4.35;;;25.50;77.30;;;;;;7383389;19;20010;-81
2023/09/05 03:32:12;;;;;;;9.43;4.43;;;25.50;77.20;;;;;;7405028;19;20007;-81
2023/09/05 03:34:51;;;;;;;11.23;4.43;;;25.40;77.20;;;;;;7384263;19;20015;-81
2023/09/05 03:37:25;;;;;;;8.18;4.80;;;25.40;77.40;;;;;;7383230;19;20014;-81
2023/09/05 03:39:58;;;;;;;6.78;4.60;;;25.40;77.50;;;;;;7383142;19;20002;-82
2023/09/05 03:42:29;;;;;;;9.82;4.20;;;25.40;77.30;;;;;;7383103;19;20050;-81
2023/09/05 03:44:58;;;;;;;5.57;4.43;;;25.30;77.30;;;;;;7383362;19;20010;-80
2023/09/05 03:47:29;;;;;;;7.18;4.60;;;25.30;77.00;;;;;;7382891;19;20007;-80
2023/09/05 03:50:03;;;;;;;6.65;4.20;;;25.30;77.10;;;;;;7409047;19;20011;-80
2023/09/05 03:52:36;;;;;;;9.38;3.72;;;25.30;77.00;;;;;;7385554;19;20098;-81
2023/09/05 03:55:07;;;;;;;10.35;4.10;;;25.30;77.00;;;;;;7383498;19;20016;-81
2023/09/05 03:57:36;;;;;;;6.13;3.83;;;25.30;77.10;;;;;;7383151;19;20027;-81
2023/09/05 04:00:06;;;;;;;7.05;4.00;;;25.30;76.90;;;;;;7383025;19;20006;-81
2023/09/05 04:02:40;;;;;;;7.20;3.80;;;25.40;76.70;;;;;;7383996;19;20028;-80
2023/09/05 04:05:14;;;;;;;8.90;4.28;;;25.40;76.40;;;;;;7406919;19;20017;-80
2023/09/05 04:07:42;;;;;;;6.85;3.70;;;25.40;76.30;;;;;;7385188;19;20025;-81
2023/09/05 04:10:17;;;;;;;8.35;3.80;;;25.40;76.10;;;;;;7382903;19;20011;-80
2023/09/05 04:12:55;;;;;;;9.40;3.88;;;25.40;75.90;;;;;;7381629;19;20013;-80
2023/09/05 04:15:26;;;;;;;7.97;3.75;;;25.50;75.80;;;;;;7381838;19;20010;-80
2023/09/05 04:17:56;;;;;;;7.05;3.65;;;25.40;75.60;;;;;;7380822;19;20003;-80
2023/09/05 04:20:31;;;;;;;12.50;3.85;;;25.50;75.70;;;;;;7380794;19;20003;-81
2023/09/05 04:23:05;;;;;;;9.05;3.90;;;25.50;75.60;;;;;;7401843;19;20006;-81
2023/09/05 04:25:40;;;;;;;8.63;4.05;;;25.50;75.60;;;;;;7381352;19;20010;-81
2023/09/05 04:28:11;;;;;;;8.82;4.45;;;25.50;75.70;;;;;;7384382;19;20007;-81
2023/09/05 04:30:41;;;;;;;10.35;4.13;;;25.40;75.80;;;;;;7386675;19;20002;-80
2023/09/05 04:33:12;;;;;;;9.10;3.83;;;25.50;75.80;;;;;;7405159;19;20011;-79
2023/09/05 04:35:47;;;;;;;;;;;25.40;75.60;;;;;;7403775;19;20018;-80
2023/09/05 04:38:18;;;;;;;8.32;4.03;;;25.40;75.70;;;;;;7393986;19;19911;-81
2023/09/05 04:40:50;;;;;;;6.32;4.00;;;25.40;75.70;;;;;;7403529;19;20039;-81
2023/09/05 04:43:37;;;;;;;10.52;4.25;;;25.40;75.90;;;;;;7381278;19;20100;-81
2023/09/05 04:46:09;;;;;;;6.22;3.88;;;25.40;76.10;;;;;;7380441;19;20003;-80
2023/09/05 04:48:43;;;;;;;7.93;4.13;;;25.30;76.00;;;;;;7382439;19;20029;-79
2023/09/05 04:51:17;;;;;;;4.82;3.55;;;25.30;75.90;;;;;;7382096;19;20362;-80
2023/09/05 04:53:49;;;;;;;10.50;4.38;;;25.40;76.10;;;;;;7384336;19;20011;-80
2023/09/05 04:56:20;;;;;;;8.90;5.28;;;25.40;76.00;;;;;;7379622;19;20013;-81
2023/09/05 04:58:58;;;;;;;12.75;5.50;;;25.40;76.20;;;;;;7402679;19;20011;-81
2023/09/05 05:01:30;;;;;;;9.77;5.05;;;25.40;76.40;;;;;;7380707;19;20007;-79
2023/09/05 05:04:05;;;;;;;27.90;4.63;;;25.40;76.50;;;;;;7381850;19;20027;-80
2023/09/05 05:06:50;;;;;;;20.30;5.38;;;25.40;76.80;;;;;;7383487;19;20006;-81
2023/09/05 05:09:22;;;;;;;6.78;4.43;;;25.30;76.70;;;;;;7384509;19;20017;-81
2023/09/05 05:11:59;;;;;;;8.27;5.00;;;25.30;76.90;;;;;;7380713;19;20006;-81
2023/09/05 05:14:32;;;;;;;9.88;5.70;;;25.30;77.00;;;;;;7378925;19;20097;-81
2023/09/05 05:17:12;;;;;;;8.20;5.25;;;25.20;76.90;;;;;;7403099;19;20007;-81
2023/09/05 05:19:44;;;;;;;11.18;4.68;;;25.30;77.00;;;;;;7380822;19;20021;-81
2023/09/05 05:22:20;;;;;;;8.43;4.60;;;25.30;76.80;;;;;;7379314;19;20010;-81
2023/09/05 05:25:02;;;;;;;8.80;4.53;;;25.30;76.70;;;;;;7381281;19;20014;-80
2023/09/05 05:27:35;;;;;;;8.30;4.43;;;25.30;76.70;;;;;;7379804;19;20723;-81
2023/09/05 05:30:05;;;;;;;14.35;4.70;;;25.30;76.50;;;;;;7380765;19;20027;-81
2023/09/05 05:32:53;;;;;;;8.77;4.70;;;25.30;76.30;;;;;;7379964;19;20019;-80
2023/09/05 05:35:24;;;;;;;11.52;5.43;;;25.30;76.30;;;;;;7380150;19;20007;-81
2023/09/05 05:38:00;;;;;;;11.07;4.15;;;25.30;76.30;;;;;;7400756;19;20006;-81
2023/09/05 05:40:29;;;;;;;7.97;3.85;;;25.30;76.30;;;;;;7380194;19;20003;-81
2023/09/05 05:42:58;;;;;;;10.75;4.97;;;25.30;76.10;;;;;;7379797;19;20402;-81
2023/09/05 05:45:30;;;;;;;7.18;3.80;;;25.30;75.90;;;;;;7379927;19;20070;-81
2023/09/05 05:48:07;;;;;;;6.35;4.38;;;25.30;75.80;;;;;;7378728;19;20013;-81
2023/09/05 05:50:44;;;;;;;8.40;4.50;;;25.30;75.80;;;;;;7380235;19;19999;-81
2023/09/05 05:53:20;;;;;;;6.30;4.88;;;25.30;75.70;;;;;;7404806;19;20003;-81
2023/09/05 05:55:55;;;;;;;10.70;4.57;;;25.30;75.70;;;;;;7385533;19;20358;-81
2023/09/05 05:58:30;;;;;;;8.15;5.15;;;25.30;75.60;;;;;;7382047;19;20034;-81
2023/09/05 06:01:02;;;;;;;7.72;4.85;;;25.30;75.70;;;;;;7381088;19;20377;-81
2023/09/05 06:03:35;;;;;;;10.00;4.60;;;25.30;75.70;;;;;;7382419;19;20015;-81
2023/09/05 06:06:07;;;;;;;6.78;4.57;;;25.40;75.80;;;;;;7380266;19;20092;-80
2023/09/05 06:08:41;;;;;;;13.10;4.40;;;25.40;75.70;;;;;;7382225;19;20009;-81
2023/09/05 06:11:33;;;;;;;8.13;5.00;;;25.50;75.80;;;;;;7404857;19;20013;-81
2023/09/05 06:14:12;;;;;;;8.15;6.32;;;25.40;75.70;;;;;;7386762;19;20027;-81
2023/09/05 06:16:56;;;;;;;8.38;5.25;;;25.50;75.60;;;;;;7388293;19;20011;-81
2023/09/05 06:19:38;;;;;;;10.77;4.82;;;25.50;75.50;;;;;;7387573;19;20059;-81
2023/09/05 06:22:11;;;;;;;7.55;4.82;;;25.50;75.50;;;;;;7391840;19;20007;-82
2023/09/05 06:24:48;;;;;;;7.38;4.05;;;25.60;75.50;;;;;;7394907;19;20002;-80
2023/09/05 06:27:27;;;;;;;10.05;5.00;;;25.60;75.40;;;;;;7394082;19;20003;-81
2023/09/05 06:29:56;;;;;;;5.65;4.60;;;25.60;75.40;;;;;;7404833;19;20310;-81
2023/09/05 06:32:31;;;;;;;7.30;4.25;;;25.70;75.50;;;;;;7396947;19;19998;-81
2023/09/05 06:35:02;;;;;;;8.70;4.32;;;25.70;75.30;;;;;;7406894;19;20027;-81
2023/09/05 06:37:32;;;;;;;7.78;4.22;;;25.70;75.20;;;;;;7386161;19;20043;-81
2023/09/05 06:40:09;;;;;;;9.75;4.38;;;25.70;75.50;;;;;;7387210;19;20017;-81
2023/09/05 06:42:40;;;;;;;14.13;4.40;;;25.80;75.50;;;;;;7386345;19;20010;-81
2023/09/05 06:45:13;;;;;;;8.85;4.45;;;25.80;75.40;;;;;;7386275;19;20010;-81
2023/09/05 06:47:45;;;;;;;6.72;4.43;;;25.90;75.40;;;;;;7385198;19;20062;-81
2023/09/05 06:50:19;;;;;;;10.10;4.68;;;25.90;75.40;;;;;;7407983;19;20035;-81
2023/09/05 06:52:58;;;;;;;12.48;4.47;;;25.90;75.40;;;;;;7386229;19;20246;-80
2023/09/05 06:55:36;;;;;;;7.68;4.22;;;25.90;75.20;;;;;;7385805;19;20038;-81
2023/09/05 06:58:14;;;;;;;11.77;4.35;;;25.90;75.10;;;;;;7386540;19;20295;-81
2023/09/05 07:01:01;;;;;;;8.35;4.47;;;26.00;75.20;;;;;;7385626;19;20219;-81
2023/09/05 07:03:31;;;;;;;9.60;4.40;;;26.00;75.00;;;;;;7384573;19;20019;-81
2023/09/05 07:06:07;;;;;;;13.97;4.70;;;26.10;74.90;;;;;;7383127;19;20319;-80
2023/09/05 07:08:38;;;;;;;13.07;5.25;;;26.10;74.90;;;;;;7383977;19;20239;-81
2023/09/05 07:11:20;;;;;;;10.55;5.40;;;26.10;75.10;;;;;;7405701;19;20245;-81
2023/09/05 07:13:59;;;;;;;15.73;5.90;;;26.20;75.30;;;;;;7384900;19;20066;-79
2023/09/05 07:16:28;;;;;;;13.23;5.10;;;26.20;75.30;;;;;;7385739;19;20013;-80
2023/09/05 07:19:03;;;;;;;11.63;5.20;;;26.20;75.00;;;;;;7384752;19;20107;-80
2023/09/05 07:21:37;;;;;;;10.25;4.70;;;26.30;74.90;;;;;;7383820;19;20003;-81
2023/09/05 07:24:15;;;;;;;11.35;4.32;;;26.30;74.80;;;;;;7385172;19;20357;-81
2023/09/05 07:26:50;;;;;;;10.52;4.70;;;26.40;75.00;;;;;;7381222;19;20007;-81
2023/09/05 07:29:26;;;;;;;11.75;4.78;;;26.40;75.10;;;;;;7382491;19;20039;-80
2023/09/05 07:31:58;;;;;;;7.57;4.57;;;26.50;74.90;;;;;;7404729;19;20011;-81
2023/09/05 07:34:32;;;;;;;;;;;26.60;74.90;;;;;;7383871;19;20006;-81
2023/09/05 07:37:01;;;;;;;7.88;4.30;;;26.60;74.70;;;;;;7382886;19;19918;-81
2023/09/05 07:39:41;;;;;;;15.63;4.45;;;26.70;74.50;;;;;;7383439;19;20014;-81
2023/09/05 07:42:17;;;;;;;13.40;4.70;;;26.70;74.50;;;;;;7383600;19;20016;-79
2023/09/05 07:44:52;;;;;;;17.73;4.88;;;26.70;74.50;;;;;;7384371;19;20014;-80
2023/09/05 07:47:24;;;;;;;8.23;4.30;;;26.80;74.50;;;;;;7382902;19;20397;-81
2023/09/05 07:49:59;;;;;;;11.38;4.07;;;26.80;74.60;;;;;;7403843;19;20049;-81
2023/09/05 07:52:34;;;;;;;11.85;4.30;;;26.90;74.70;;;;;;7383825;19;20327;-81
2023/09/05 07:55:03;;;;;;;10.07;4.43;;;26.90;75.50;;;;;;7383668;19;20024;-80
2023/09/05 07:57:36;;;;;;;16.60;4.70;;;26.90;74.70;;;;;;7384735;19;20026;-80
2023/09/05 08:00:08;;;;;;;14.77;5.03;;;26.90;74.70;;;;;;7384299;19;20031;-80
2023/09/05 08:02:45;;;;;;;12.02;4.63;;;27.00;74.70;;;;;;7384878;19;20026;-80
2023/09/05 08:05:14;;;;;;;10.68;4.43;;;27.00;74.60;;;;;;7403797;19;20007;-80
2023/09/05 08:07:43;;;;;;;18.85;4.82;;;27.00;74.40;;;;;;7382898;19;20010;-80
2023/09/05 08:10:28;;;;;;;16.83;4.28;;;27.10;74.30;;;;;;7384606;19;20002;-81
2023/09/05 08:13:02;;;;;;;8.35;4.43;;;27.10;74.10;;;;;;7385924;19;20043;-81
2023/09/05 08:15:34;;;;;;;11.40;4.60;;;27.10;74.30;;;;;;7384789;19;20473;-82
2023/09/05 08:18:03;;;;;;;7.65;4.40;;;27.10;74.40;;;;;;7398808;19;20010;-81
2023/09/05 08:20:35;;;;;;;8.55;4.60;;;27.10;74.40;;;;;;7404407;19;20007;-80
2023/09/05 08:23:04;;;;;;;12.48;4.50;;;27.10;74.00;;;;;;7424930;19;20010;-81
2023/09/05 08:25:45;;;;;;;14.90;4.63;;;27.20;74.20;;;;;;7406831;19;20006;-80
2023/09/05 08:28:43;;;;;;;9.70;4.45;;;27.20;74.20;;;;;;7390159;19;20268;-81
2023/09/05 08:31:17;;;;;;;8.27;4.13;;;27.20;74.20;;;;;;7383436;19;20007;-81
2023/09/05 08:33:57;;;;;;;7.30;4.38;;;27.30;74.40;;;;;;7382537;19;20003;-81
2023/09/05 08:36:40;;;;;;;14.63;4.45;;;27.30;74.30;;;;;;7381983;19;20007;-82
2023/09/05 08:39:12;;;;;;;8.43;4.60;;;27.30;74.40;;;;;;7384303;19;20020;-82
2023/09/05 08:41:56;;;;;;;10.77;4.90;;;27.40;74.60;;;;;;7381798;19;19999;-81
2023/09/05 08:44:44;;;;;;;12.55;4.65;;;27.40;74.50;;;;;;7381217;19;20002;-81
2023/09/05 08:47:29;;;;;;;13.07;4.43;;;27.40;74.40;;;;;;7402669;19;19999;-81
2023/09/05 08:50:05;;;;;;;7.35;4.28;;;27.50;74.50;;;;;;7381645;19;20006;-81
2023/09/05 08:52:50;;;;;;;13.60;4.80;;;27.50;74.50;;;;;;7381952;19;20014;-81
2023/09/05 08:55:29;;;;;;;9.93;4.50;;;27.50;74.40;;;;;;7382170;19;20010;-81
2023/09/05 08:58:20;;;;;;;9.75;4.10;;;27.50;74.40;;;;;;7381956;19;20014;-81
2023/09/05 09:01:05;;;;;;;7.88;4.28;;;27.60;74.50;;;;;;7382324;19;20375;-81
2023/09/05 09:03:45;;;;;;;8.38;3.90;;;27.60;74.40;;;;;;7380954;19;20003;-81
2023/09/05 09:06:35;;;;;;;11.05;4.50;;;27.60;74.40;;;;;;7383041;19;20002;-81
2023/09/05 09:09:30;;;;;;;13.60;4.20;;;27.60;74.60;;;;;;7381427;19;20017;-81
2023/09/05 09:12:05;;;;;;;8.88;4.28;;;27.60;74.40;;;;;;7381593;19;20039;-81
2023/09/05 09:14:55;;;;;;;10.45;4.63;;;27.70;74.70;;;;;;7380869;19;20007;-81
2023/09/05 09:17:34;;;;;;;12.90;4.43;;;27.70;74.60;;;;;;7383488;19;20020;-81
2023/09/05 09:20:28;;;;;;;9.93;4.18;;;27.70;74.70;;;;;;7405282;19;20009;-81
2023/09/05 09:23:10;;;;;;;12.32;4.30;;;27.80;74.90;;;;;;7382063;19;20011;-81
2023/09/05 09:26:26;;;;;;;15.32;4.50;;;27.80;74.60;;;;;;7380647;19;20010;-80
2023/09/05 09:28:57;;;;;;;17.15;4.57;;;27.90;74.60;;;;;;7380369;19;20082;-81
2023/09/05 09:31:43;;;;;;;11.43;4.30;;;27.90;74.60;;;;;;7381158;19;20013;-81
2023/09/05 09:34:40;;;;;;;13.27;4.45;;;27.90;74.80;;;;;;7380933;19;20019;-82
2023/09/05 09:37:12;;;;;;;22.13;4.75;;;28.00;75.00;;;;;;7380686;19;20015;-82
2023/09/05 09:40:04;;;;;;;12.95;4.22;;;28.00;74.90;;;;;;7381449;19;20007;-83
2023/09/05 09:42:41;;;;;;;;;;;28.00;74.80;;;;;;7381200;19;20010;-82
2023/09/05 09:45:39;;;;;;;13.45;4.40;;;28.00;74.80;;;;;;7381345;19;20361;-80
2023/09/05 09:48:30;;;;;;;;;;;;;;;;;;;;;
2023/09/05 09:51:10;;;;;;;;;;;28.10;74.20;;;;;;7390129;19;20026;-80
2023/09/05 09:56:53;;;;;;;13.95;3.95;;;28.10;74.80;;;;;;7383687;19;20036;-80
2023/09/05 09:59:39;;;;;;;11.33;4.43;;;28.10;74.80;;;;;;7386415;19;20613;-81
2023/09/05 10:02:19;;;;;;;9.80;4.15;;;28.20;74.80;;;;;;7404693;19;20015;-81
2023/09/05 10:05:08;;;;;;;10.23;4.40;;;28.20;74.20;;;;;;7387623;19;20148;-80
2023/09/05 10:08:00;;;;;;;7.70;4.28;;;28.20;73.90;;;;;;7390540;19;20014;-81
2023/09/05 10:10:45;;;;;;;10.82;4.40;;;28.20;73.60;;;;;;7393761;19;20018;-80
2023/09/05 10:13:25;;;;;;;8.40;4.63;;;28.30;73.80;;;;;;7409402;19;20007;-81
2023/09/05 10:16:23;;;;;;;12.00;4.88;;;28.30;73.50;;;;;;7409934;19;20026;-81
2023/09/05 10:19:05;;;;;;;20.95;6.72;;;28.40;73.30;;;;;;7402403;19;20003;-81
2023/09/05 10:22:08;;;;;;;6.63;4.60;;;28.40;73.30;;;;;;7385884;19;20010;-80
2023/09/05 10:25:03;;;;;;;13.32;4.10;;;28.40;73.60;;;;;;7385208;19;19999;-81
2023/09/05 10:28:01;;;;;;;9.48;3.78;;;28.50;73.10;;;;;;7385804;19;20239;-81
2023/09/05 10:30:44;;;;;;;9.93;4.50;;;28.50;73.10;;;;;;7385701;19;20003;-81
2023/09/05 10:33:26;;;;;;;11.90;3.92;;;28.50;73.10;;;;;;7384846;19;20010;-80
2023/09/05 10:36:16;;;;;;;11.60;4.82;;;28.60;73.80;;;;;;7383985;19;20010;-80
2023/09/05 10:39:08;;;;;;;8.70;3.78;;;28.60;72.50;;;;;;7384279;19;20003;-80
2023/09/05 10:42:16;;;;;;;10.68;4.45;;;28.70;72.40;;;;;;7384687;19;20015;-80
2023/09/05 10:45:05;;;;;;;23.08;5.00;;;28.70;72.40;;;;;;7384578;19;20010;-80
2023/09/05 10:47:39;;;;;;;10.68;4.32;;;28.80;72.50;;;;;;7383412;19;20240;-81
2023/09/05 10:50:32;;;;;;;11.27;3.83;;;28.80;72.00;;;;;;7407711;19;20010;-81
2023/09/05 10:53:52;;;;;;;7.90;3.95;;;28.90;72.20;;;;;;7385042;19;20039;-81
2023/09/05 10:56:53;;;;;;;6.70;4.22;;;29.00;72.50;;;;;;7282153;19;2004430;-81
2023/09/05 10:59:51;;;;;;;8.18;4.68;;;29.00;72.40;;;;;;7386969;19;20014;-81
2023/09/05 11:02:31;;;;;;;7.85;3.60;;;29.10;71.70;;;;;;7386722;19;20006;-81
2023/09/05 11:05:06;;;;;;;10.88;4.05;;;29.10;70.50;;;;;;7405690;19;20035;-81
2023/09/05 11:07:43;;;;;;;7.53;3.10;;;29.20;70.40;;;;;;7385383;19;20378;-81
2023/09/05 11:10:31;;;;;;;5.68;3.30;;;29.30;64.60;;;;;;7385565;19;20023;-81
2023/09/05 11:13:31;;;;;;;8.93;3.40;;;29.30;65.00;;;;;;7385180;19;20070;-81
2023/09/05 11:16:18;;;;;;;10.77;3.88;;;29.40;65.90;;;;;;7385727;19;20011;-82
2023/09/05 11:21:44;;;;;;;7.68;3.03;;;29.50;63.40;;;;;;7384050;19;20263;-81
2023/09/05 11:24:45;;;;;;;10.88;3.17;;;29.60;64.20;;;;;;7384848;19;20025;-81
2023/09/05 11:30:09;;;;;;;10.45;3.15;;;29.70;62.60;;;;;;7383387;19;20013;-81
2023/09/05 11:32:59;;;;;;;6.05;2.72;;;29.70;62.60;;;;;;7383042;19;20010;-82
2023/09/05 11:35:45;;;;;;;10.38;3.08;;;29.90;62.00;;;;;;7385491;19;19999;-81
2023/09/05 11:38:39;;;;;;;5.32;2.90;;;29.80;61.70;;;;;;7405000;19;20015;-81
2023/09/05 11:41:31;;;;;;;2.90;2.05;;;29.90;62.30;;;;;;7387766;19;20015;-81
2023/09/05 11:44:20;;;;;;;6.00;2.80;;;30.00;56.60;;;;;;7386339;19;20007;-80
2023/09/05 11:46:55;;;;;;;4.97;2.63;;;30.00;58.00;;;;;;7387243;19;20003;-81
2023/09/05 11:49:31;;;;;;;8.90;2.60;;;30.10;59.10;;;;;;7382162;19;20006;-81
2023/09/05 11:52:26;;;;;;;5.15;2.55;;;30.10;60.30;;;;;;7386264;19;20275;-80
2023/09/05 11:55:09;;;;;;;13.88;3.03;;;30.20;59.30;;;;;;7384337;19;20066;-80
2023/09/05 11:58:18;;;;;;;17.52;3.10;;;30.30;59.90;;;;;;7384207;19;20067;-80
2023/09/05 12:01:04;;;;;;;6.43;3.03;;;30.40;60.90;;;;;;7406264;19;20013;-81
2023/09/05 12:07:01;;;;;;;5.57;2.72;;;30.50;59.50;;;;;;7407677;19;20010;-81
2023/09/05 12:10:04;;;;;;;7.18;2.78;;;30.60;58.10;;;;;;7394224;19;20363;-81
2023/09/05 12:12:36;;;;;;;7.97;2.78;;;30.60;57.70;;;;;;7383946;19;20006;-81
2023/09/05 12:15:41;;;;;;;12.15;2.78;;;30.70;57.50;;;;;;7383320;19;20106;-81
2023/09/05 12:18:53;;;;;;;10.02;2.83;;;30.80;58.00;;;;;;7380623;19;20040;-81
2023/09/05 12:21:42;;;;;;;10.32;2.63;;;30.90;57.20;;;;;;7379076;19;20130;-81
2023/09/05 12:24:35;;;;;;;4.07;2.88;;;31.00;57.90;;;;;;7358465;19;20082;-81
2023/09/05 12:27:42;;;;;;;5.43;2.88;;;31.10;57.70;;;;;;7404391;19;20009;-81
2023/09/05 12:30:30;;;;;;;6.40;2.42;;;31.20;57.00;;;;;;7382819;19;20006;-81
2023/09/05 12:49:51;;;;;;;7.60;2.47;;;31.40;53.60;;;;;;6294426;19;11324826;-81
2023/09/05 12:56:13;;;;;;;8.40;2.33;;;31.90;53.10;;;;;;7415489;19;20025;-81
2023/09/05 12:59:25;;;;;;;5.63;2.70;;;32.00;53.00;;;;;;7410994;19;20011;-81
2023/09/05 13:12:10;;;;;;;11.23;2.63;;;32.30;52.00;;;;;;7410690;19;21025;-82
2023/09/05 13:18:49;;;;;;;11.07;2.47;;;32.40;52.10;;;;;;7410779;19;20010;-82
2023/09/05 13:29:00;;;;;;;;;;;;;;;;;;;;;
2023/09/05 13:31:51;;;;;;;10.88;2.28;;;32.70;49.10;;;;;;7412963;19;20266;-82
2023/09/05 13:41:17;;;;;;;15.90;2.50;;;32.90;48.00;;;;;;7415045;19;20007;-82
2023/09/05 13:47:55;;;;;;;12.65;2.30;;;33.10;46.50;;;;;;7311236;19;2004323;-82
2023/09/05 13:50:45;;;;;;;6.35;2.13;;;33.10;46.80;;;;;;7411669;19;20031;-82
2023/09/05 13:57:24;;;;;;;;;;;;;;;;;;;;;
2023/09/05 14:00:27;;;;;;;14.68;2.10;;;33.30;46.10;;;;;;7386411;19;20032;-82
2023/09/05 14:03:07;;;;;;;8.00;2.10;;;33.20;46.00;;;;;;7384969;19;20010;-81
2023/09/05 14:06:12;;;;;;;10.05;2.10;;;33.30;46.60;;;;;;7387346;19;20031;-81
2023/09/05 14:09:04;;;;;;;8.07;2.47;;;33.30;45.70;;;;;;7383054;19;20126;-82
2023/09/05 14:11:54;;;;;;;10.35;2.13;;;33.40;46.40;;;;;;7381673;19;20094;-82
2023/09/05 14:14:38;;;;;;;11.23;1.73;;;33.30;45.80;;;;;;7384090;19;20339;-82
2023/09/05 14:17:33;;;;;;;5.50;2.00;;;33.40;46.20;;;;;;7402763;19;20423;-81
2023/09/05 14:23:39;;;;;;;8.60;2.25;;;33.40;46.40;;;;;;7282058;19;2004428;-81
2023/09/05 14:26:53;;;;;;;17.27;2.20;;;33.50;47.10;;;;;;7405993;19;20052;-82
2023/09/05 14:33:09;;;;;;;9.50;2.20;;;33.60;45.30;;;;;;7381509;19;20030;-81
2023/09/05 14:39:09;;;;;;;4.10;2.40;;;33.60;46.30;;;;;;7381911;19;20014;-81
2023/09/05 14:51:33;;;;;;;11.57;2.60;;;33.80;45.40;;;;;;6671245;19;14468514;-82
2023/09/05 14:54:15;;;;;;;12.48;2.20;;;34.00;45.90;;;;;;7417462;19;20014;-81
2023/09/05 14:57:05;;;;;;;9.75;2.40;;;34.00;46.50;;;;;;7416223;19;20002;-81
2023/09/05 14:59:59;;;;;;;3.25;1.98;;;34.00;45.60;;;;;;7415792;19;20560;-81
2023/09/05 15:05:41;;;;;;;6.50;2.15;;;34.10;45.00;;;;;;7416218;19;20014;-80
2023/09/05 15:08:30;;;;;;;6.97;2.10;;;34.10;44.70;;;;;;7441572;19;20010;-81
2023/09/05 15:14:46;;;;;;;10.23;2.00;;;34.20;44.80;;;;;;7418488;19;20002;-81
2023/09/05 15:17:27;;;;;;;10.25;2.00;;;34.20;46.10;;;;;;7314944;19;2004206;-82
2023/09/05 15:19:56;;;;;;;;;;;34.20;44.90;;;;;;7439154;19;20006;-82
2023/09/05 15:22:37;;;;;;;7.97;2.05;;;34.20;44.60;;;;;;7417533;19;19911;-82
2023/09/05 15:25:49;;;;;;;6.97;2.10;;;34.30;44.30;;;;;;7417507;19;20010;-81
2023/09/05 15:28:54;;;;;;;11.23;2.05;;;34.30;44.90;;;;;;7417933;19;20006;-81
2023/09/05 15:31:50;;;;;;;10.15;2.25;;;34.30;45.40;;;;;;7417153;19;20023;-82
2023/09/05 15:34:34;;;;;;;4.75;1.90;;;34.30;45.60;;;;;;7417830;19;20013;-82
2023/09/05 15:37:31;;;;;;;11.70;2.15;;;34.30;45.70;;;;;;7420328;19;20023;-81
2023/09/05 15:40:08;;;;;;;9.80;2.33;;;34.40;46.60;;;;;;7439382;19;20003;-79
2023/09/05 15:43:07;;;;;;;8.57;2.00;;;34.40;46.30;;;;;;7438510;19;20046;-81
2023/09/05 15:45:48;;;;;;;9.45;2.10;;;34.40;45.60;;;;;;7432488;19;20361;-80